sensor_id;sensor_type;location;lat;lon;timestamp;temperature;humidity
21602;DHT22;10963;50.934;4.668;2023-07-16T00:00:15;18.90;99.90
21602;DHT22;10963;50.934;4.668;2023-07-16T00:02:47;18.90;99.90
21602;DHT22;10963;50.934;4.668;2023-07-16T00:05:21;18.80;99.90
21602;DHT22;10963;50.934;4.668;2023-07-16T00:07:46;18.70;99.90
21602;DHT22;10963;50.934;4.668;2023-07-16T00:10:15;18.70;99.90
21602;DHT22;10963;50.934;4.668;2023-07-16T00:12:41;18.70;99.90
21602;DHT22;10963;50.934;4.668;2023-07-16T00:15:11;18.80;99.90
21602;DHT22;10963;50.934;4.668;2023-07-16T00:17:37;18.80;99.90
21602;DHT22;10963;50.934;4.668;2023-07-16T00:20:05;18.80;99.90
21602;DHT22;10963;50.934;4.668;2023-07-16T00:22:33;18.80;99.90
21602;DHT22;10963;50.934;4.668;2023-07-16T00:24:59;18.90;99.90
21602;DHT22;10963;50.934;4.668;2023-07-16T00:27:25;18.90;99.90
21602;DHT22;10963;50.934;4.668;2023-07-16T00:29:53;19.00;99.90
21602;DHT22;10963;50.934;4.668;2023-07-16T00:32:19;19.00;99.90
21602;DHT22;10963;50.934;4.668;2023-07-16T00:34:44;18.90;99.90
21602;DHT22;10963;50.934;4.668;2023-07-16T00:37:11;18.90;99.90
21602;DHT22;10963;50.934;4.668;2023-07-16T00:39:36;18.90;99.90
21602;DHT22;10963;50.934;4.668;2023-07-16T00:42:02;18.90;99.90
21602;DHT22;10963;50.934;4.668;2023-07-16T00:44:28;18.90;99.90
21602;DHT22;10963;50.934;4.668;2023-07-16T00:46:54;18.80;99.90
21602;DHT22;10963;50.934;4.668;2023-07-16T00:49:20;18.80;99.90
21602;DHT22;10963;50.934;4.668;2023-07-16T00:51:48;18.70;99.90
21602;DHT22;10963;50.934;4.668;2023-07-16T00:54:17;18.70;99.90
21602;DHT22;10963;50.934;4.668;2023-07-16T00:56:48;18.60;99.90
21602;DHT22;10963;50.934;4.668;2023-07-16T00:59:18;18.60;99.90
21602;DHT22;10963;50.934;4.668;2023-07-16T01:01:44;18.60;99.90
21602;DHT22;10963;50.934;4.668;2023-07-16T01:04:10;18.60;99.90
21602;DHT22;10963;50.934;4.668;2023-07-16T01:06:41;18.60;99.90
21602;DHT22;10963;50.934;4.668;2023-07-16T01:09:11;18.50;99.90
21602;DHT22;10963;50.934;4.668;2023-07-16T01:11:41;18.50;99.90
21602;DHT22;10963;50.934;4.668;2023-07-16T01:14:10;18.40;99.90
21602;DHT22;10963;50.934;4.668;2023-07-16T01:16:36;18.30;99.90
21602;DHT22;10963;50.934;4.668;2023-07-16T01:19:02;18.20;99.90
21602;DHT22;10963;50.934;4.668;2023-07-16T01:29:58;18.00;99.90
21602;DHT22;10963;50.934;4.668;2023-07-16T01:32:24;17.90;99.90
21602;DHT22;10963;50.934;4.668;2023-07-16T01:34:52;17.90;99.90
21602;DHT22;10963;50.934;4.668;2023-07-16T01:37:18;17.80;99.90
21602;DHT22;10963;50.934;4.668;2023-07-16T01:39:47;17.70;99.90
21602;DHT22;10963;50.934;4.668;2023-07-16T01:42:12;17.60;99.90
21602;DHT22;10963;50.934;4.668;2023-07-16T01:44:40;17.60;99.90
21602;DHT22;10963;50.934;4.668;2023-07-16T01:47:10;17.60;99.90
21602;DHT22;10963;50.934;4.668;2023-07-16T01:49:36;17.60;99.90
21602;DHT22;10963;50.934;4.668;2023-07-16T01:52:03;17.60;99.90
21602;DHT22;10963;50.934;4.668;2023-07-16T01:54:29;17.50;99.90
21602;DHT22;10963;50.934;4.668;2023-07-16T01:56:55;17.40;99.90
21602;DHT22;10963;50.934;4.668;2023-07-16T01:59:22;17.40;99.90
21602;DHT22;10963;50.934;4.668;2023-07-16T02:01:50;17.40;99.90
21602;DHT22;10963;50.934;4.668;2023-07-16T02:04:19;17.50;99.90
21602;DHT22;10963;50.934;4.668;2023-07-16T02:06:47;17.50;99.90
21602;DHT22;10963;50.934;4.668;2023-07-16T02:09:15;17.50;99.90
21602;DHT22;10963;50.934;4.668;2023-07-16T02:11:41;17.50;99.90
21602;DHT22;10963;50.934;4.668;2023-07-16T02:14:07;17.40;99.90
21602;DHT22;10963;50.934;4.668;2023-07-16T02:16:33;17.40;99.90
21602;DHT22;10963;50.934;4.668;2023-07-16T02:19:01;17.40;99.90
21602;DHT22;10963;50.934;4.668;2023-07-16T02:21:29;17.30;99.90
21602;DHT22;10963;50.934;4.668;2023-07-16T02:23:57;17.30;99.90
21602;DHT22;10963;50.934;4.668;2023-07-16T02:26:22;17.20;99.90
21602;DHT22;10963;50.934;4.668;2023-07-16T02:28:48;17.10;99.90
21602;DHT22;10963;50.934;4.668;2023-07-16T02:31:14;17.20;99.90
21602;DHT22;10963;50.934;4.668;2023-07-16T02:33:40;17.10;99.90
21602;DHT22;10963;50.934;4.668;2023-07-16T02:36:05;17.10;99.90
21602;DHT22;10963;50.934;4.668;2023-07-16T02:38:32;17.10;99.90
21602;DHT22;10963;50.934;4.668;2023-07-16T02:41:00;17.10;99.90
21602;DHT22;10963;50.934;4.668;2023-07-16T02:43:28;17.00;99.90
21602;DHT22;10963;50.934;4.668;2023-07-16T02:45:56;17.00;99.90
21602;DHT22;10963;50.934;4.668;2023-07-16T02:48:24;16.90;99.90
21602;DHT22;10963;50.934;4.668;2023-07-16T02:50:55;16.90;99.90
21602;DHT22;10963;50.934;4.668;2023-07-16T02:53:20;16.90;99.90
21602;DHT22;10963;50.934;4.668;2023-07-16T02:55:46;16.90;99.90
21602;DHT22;10963;50.934;4.668;2023-07-16T02:58:14;17.00;99.90
21602;DHT22;10963;50.934;4.668;2023-07-16T03:00:41;17.00;99.90
21602;DHT22;10963;50.934;4.668;2023-07-16T03:03:06;17.10;99.90
21602;DHT22;10963;50.934;4.668;2023-07-16T03:05:32;17.10;99.90
21602;DHT22;10963;50.934;4.668;2023-07-16T03:07:58;17.10;99.90
21602;DHT22;10963;50.934;4.668;2023-07-16T03:10:24;17.00;99.90
21602;DHT22;10963;50.934;4.668;2023-07-16T03:12:54;17.00;99.90
21602;DHT22;10963;50.934;4.668;2023-07-16T03:15:20;16.90;99.90
21602;DHT22;10963;50.934;4.668;2023-07-16T03:17:48;16.80;99.90
21602;DHT22;10963;50.934;4.668;2023-07-16T03:20:13;16.90;99.90
21602;DHT22;10963;50.934;4.668;2023-07-16T03:22:39;16.90;99.90
21602;DHT22;10963;50.934;4.668;2023-07-16T03:25:07;16.90;99.90
21602;DHT22;10963;50.934;4.668;2023-07-16T03:27:35;16.90;99.90
21602;DHT22;10963;50.934;4.668;2023-07-16T03:30:06;16.80;99.90
21602;DHT22;10963;50.934;4.668;2023-07-16T03:32:32;16.80;99.90
21602;DHT22;10963;50.934;4.668;2023-07-16T03:34:58;16.80;99.90
21602;DHT22;10963;50.934;4.668;2023-07-16T03:37:24;16.80;99.90
21602;DHT22;10963;50.934;4.668;2023-07-16T03:39:50;16.90;99.90
21602;DHT22;10963;50.934;4.668;2023-07-16T03:42:15;16.80;99.90
21602;DHT22;10963;50.934;4.668;2023-07-16T03:44:44;16.70;99.90
21602;DHT22;10963;50.934;4.668;2023-07-16T03:47:10;16.70;99.90
21602;DHT22;10963;50.934;4.668;2023-07-16T03:49:38;16.70;99.90
21602;DHT22;10963;50.934;4.668;2023-07-16T03:52:04;16.80;99.90
21602;DHT22;10963;50.934;4.668;2023-07-16T03:54:30;16.80;99.90
21602;DHT22;10963;50.934;4.668;2023-07-16T03:56:55;16.80;99.90
21602;DHT22;10963;50.934;4.668;2023-07-16T03:59:24;16.90;99.90
21602;DHT22;10963;50.934;4.668;2023-07-16T04:01:52;16.80;99.90
21602;DHT22;10963;50.934;4.668;2023-07-16T04:04:17;16.90;99.90
21602;DHT22;10963;50.934;4.668;2023-07-16T04:06:47;16.90;99.90
21602;DHT22;10963;50.934;4.668;2023-07-16T04:09:13;16.80;99.90
21602;DHT22;10963;50.934;4.668;2023-07-16T04:11:39;16.80;99.90
21602;DHT22;10963;50.934;4.668;2023-07-16T04:14:04;16.80;99.90
21602;DHT22;10963;50.934;4.668;2023-07-16T04:16:33;16.80;99.90
21602;DHT22;10963;50.934;4.668;2023-07-16T04:18:58;16.70;99.90
21602;DHT22;10963;50.934;4.668;2023-07-16T04:21:24;16.60;99.90
21602;DHT22;10963;50.934;4.668;2023-07-16T04:23:50;16.70;99.90
21602;DHT22;10963;50.934;4.668;2023-07-16T04:26:15;16.80;99.90
21602;DHT22;10963;50.934;4.668;2023-07-16T04:28:41;16.90;99.90
21602;DHT22;10963;50.934;4.668;2023-07-16T04:31:09;16.80;99.90
21602;DHT22;10963;50.934;4.668;2023-07-16T04:33:37;16.90;99.90
21602;DHT22;10963;50.934;4.668;2023-07-16T04:36:03;17.00;99.90
21602;DHT22;10963;50.934;4.668;2023-07-16T04:38:29;17.20;99.90
21602;DHT22;10963;50.934;4.668;2023-07-16T04:40:57;17.30;99.90
21602;DHT22;10963;50.934;4.668;2023-07-16T04:43:22;17.40;99.90
21602;DHT22;10963;50.934;4.668;2023-07-16T04:45:50;17.40;99.90
21602;DHT22;10963;50.934;4.668;2023-07-16T04:48:16;17.40;99.90
21602;DHT22;10963;50.934;4.668;2023-07-16T04:50:44;17.40;99.90
21602;DHT22;10963;50.934;4.668;2023-07-16T04:53:11;17.70;99.90
21602;DHT22;10963;50.934;4.668;2023-07-16T04:55:38;18.10;99.90
21602;DHT22;10963;50.934;4.668;2023-07-16T04:58:05;18.10;99.90
21602;DHT22;10963;50.934;4.668;2023-07-16T05:00:35;18.30;99.90
21602;DHT22;10963;50.934;4.668;2023-07-16T05:03:06;18.40;99.90
21602;DHT22;10963;50.934;4.668;2023-07-16T05:05:34;18.20;99.90
21602;DHT22;10963;50.934;4.668;2023-07-16T05:08:01;18.10;99.90
21602;DHT22;10963;50.934;4.668;2023-07-16T05:10:27;18.10;99.90
21602;DHT22;10963;50.934;4.668;2023-07-16T05:12:55;17.90;99.90
21602;DHT22;10963;50.934;4.668;2023-07-16T05:15:24;17.70;99.90
21602;DHT22;10963;50.934;4.668;2023-07-16T05:17:52;17.60;99.90
21602;DHT22;10963;50.934;4.668;2023-07-16T05:20:17;17.60;99.90
21602;DHT22;10963;50.934;4.668;2023-07-16T05:22:46;17.80;99.90
21602;DHT22;10963;50.934;4.668;2023-07-16T05:25:14;18.00;99.90
21602;DHT22;10963;50.934;4.668;2023-07-16T05:27:39;17.80;99.90
21602;DHT22;10963;50.934;4.668;2023-07-16T05:30:06;17.80;99.90
21602;DHT22;10963;50.934;4.668;2023-07-16T05:32:32;17.80;99.90
21602;DHT22;10963;50.934;4.668;2023-07-16T05:34:57;17.80;99.90
21602;DHT22;10963;50.934;4.668;2023-07-16T05:37:23;17.90;99.90
21602;DHT22;10963;50.934;4.668;2023-07-16T05:39:51;18.20;99.90
21602;DHT22;10963;50.934;4.668;2023-07-16T05:42:17;18.40;99.90
21602;DHT22;10963;50.934;4.668;2023-07-16T05:44:46;18.40;99.90
21602;DHT22;10963;50.934;4.668;2023-07-16T05:47:14;18.60;99.90
21602;DHT22;10963;50.934;4.668;2023-07-16T05:49:40;18.60;99.90
21602;DHT22;10963;50.934;4.668;2023-07-16T05:52:10;18.90;99.90
21602;DHT22;10963;50.934;4.668;2023-07-16T05:54:39;19.20;99.90
21602;DHT22;10963;50.934;4.668;2023-07-16T05:57:05;19.80;99.90
21602;DHT22;10963;50.934;4.668;2023-07-16T05:59:30;20.00;99.90
21602;DHT22;10963;50.934;4.668;2023-07-16T06:02:00;20.40;99.90
21602;DHT22;10963;50.934;4.668;2023-07-16T06:04:28;21.20;99.90
21602;DHT22;10963;50.934;4.668;2023-07-16T06:06:53;21.50;99.90
21602;DHT22;10963;50.934;4.668;2023-07-16T06:09:22;21.70;99.90
21602;DHT22;10963;50.934;4.668;2023-07-16T06:11:50;21.90;99.90
21602;DHT22;10963;50.934;4.668;2023-07-16T06:14:18;21.80;99.90
21602;DHT22;10963;50.934;4.668;2023-07-16T06:16:46;21.50;99.90
21602;DHT22;10963;50.934;4.668;2023-07-16T06:19:12;21.40;99.90
21602;DHT22;10963;50.934;4.668;2023-07-16T06:21:40;21.30;99.90
21602;DHT22;10963;50.934;4.668;2023-07-16T06:24:05;21.50;99.90
21602;DHT22;10963;50.934;4.668;2023-07-16T06:26:31;21.90;99.90
21602;DHT22;10963;50.934;4.668;2023-07-16T06:28:57;22.00;99.90
21602;DHT22;10963;50.934;4.668;2023-07-16T06:31:25;21.60;99.90
21602;DHT22;10963;50.934;4.668;2023-07-16T06:33:51;21.60;99.90
21602;DHT22;10963;50.934;4.668;2023-07-16T06:36:17;21.60;99.90
21602;DHT22;10963;50.934;4.668;2023-07-16T06:38:42;21.50;99.90
21602;DHT22;10963;50.934;4.668;2023-07-16T06:41:08;21.80;99.90
21602;DHT22;10963;50.934;4.668;2023-07-16T06:43:36;22.60;99.90
21602;DHT22;10963;50.934;4.668;2023-07-16T06:46:04;22.40;99.90
21602;DHT22;10963;50.934;4.668;2023-07-16T06:48:34;22.60;99.90
21602;DHT22;10963;50.934;4.668;2023-07-16T06:50:59;22.60;99.90
21602;DHT22;10963;50.934;4.668;2023-07-16T06:53:28;22.70;99.90
21602;DHT22;10963;50.934;4.668;2023-07-16T06:55:53;22.80;99.90
21602;DHT22;10963;50.934;4.668;2023-07-16T06:58:19;22.80;99.90
21602;DHT22;10963;50.934;4.668;2023-07-16T07:00:45;23.00;99.90
21602;DHT22;10963;50.934;4.668;2023-07-16T07:03:15;23.00;99.90
21602;DHT22;10963;50.934;4.668;2023-07-16T07:05:44;23.20;99.90
21602;DHT22;10963;50.934;4.668;2023-07-16T07:08:10;23.30;99.90
21602;DHT22;10963;50.934;4.668;2023-07-16T07:10:40;23.40;99.90
21602;DHT22;10963;50.934;4.668;2023-07-16T07:13:06;22.90;99.90
21602;DHT22;10963;50.934;4.668;2023-07-16T07:15:34;23.30;99.90
21602;DHT22;10963;50.934;4.668;2023-07-16T07:18:04;24.20;99.90
21602;DHT22;10963;50.934;4.668;2023-07-16T07:20:29;24.30;99.90
21602;DHT22;10963;50.934;4.668;2023-07-16T07:23:00;24.50;99.90
21602;DHT22;10963;50.934;4.668;2023-07-16T07:25:28;24.20;99.90
21602;DHT22;10963;50.934;4.668;2023-07-16T07:27:54;24.00;99.90
21602;DHT22;10963;50.934;4.668;2023-07-16T07:30:19;23.90;99.90
21602;DHT22;10963;50.934;4.668;2023-07-16T07:32:45;24.10;99.90
21602;DHT22;10963;50.934;4.668;2023-07-16T07:35:11;23.60;99.90
21602;DHT22;10963;50.934;4.668;2023-07-16T07:37:39;23.50;99.90
21602;DHT22;10963;50.934;4.668;2023-07-16T07:40:05;23.50;99.90
21602;DHT22;10963;50.934;4.668;2023-07-16T07:42:34;24.10;99.90
21602;DHT22;10963;50.934;4.668;2023-07-16T07:45:02;24.70;99.90
21602;DHT22;10963;50.934;4.668;2023-07-16T07:47:28;24.90;99.90
21602;DHT22;10963;50.934;4.668;2023-07-16T07:49:53;24.90;99.90
21602;DHT22;10963;50.934;4.668;2023-07-16T07:52:19;25.00;99.90
21602;DHT22;10963;50.934;4.668;2023-07-16T07:54:45;25.20;99.90
21602;DHT22;10963;50.934;4.668;2023-07-16T07:57:11;25.40;99.90
21602;DHT22;10963;50.934;4.668;2023-07-16T07:59:39;25.20;99.90
21602;DHT22;10963;50.934;4.668;2023-07-16T08:02:07;25.40;99.90
21602;DHT22;10963;50.934;4.668;2023-07-16T08:04:33;25.30;99.90
21602;DHT22;10963;50.934;4.668;2023-07-16T08:06:59;26.00;99.90
21602;DHT22;10963;50.934;4.668;2023-07-16T08:09:26;26.70;99.90
21602;DHT22;10963;50.934;4.668;2023-07-16T08:11:52;25.60;99.90
21602;DHT22;10963;50.934;4.668;2023-07-16T08:14:22;25.40;99.90
21602;DHT22;10963;50.934;4.668;2023-07-16T08:16:48;25.30;99.90
21602;DHT22;10963;50.934;4.668;2023-07-16T08:19:14;25.00;99.90
21602;DHT22;10963;50.934;4.668;2023-07-16T08:21:39;24.80;99.90
21602;DHT22;10963;50.934;4.668;2023-07-16T08:24:06;24.90;99.90
21602;DHT22;10963;50.934;4.668;2023-07-16T08:26:34;25.10;99.90
21602;DHT22;10963;50.934;4.668;2023-07-16T08:29:02;25.00;99.90
21602;DHT22;10963;50.934;4.668;2023-07-16T08:31:29;24.90;99.90
21602;DHT22;10963;50.934;4.668;2023-07-16T08:33:59;24.90;99.90
21602;DHT22;10963;50.934;4.668;2023-07-16T08:36:26;24.80;99.90
21602;DHT22;10963;50.934;4.668;2023-07-16T08:38:54;24.40;99.90
21602;DHT22;10963;50.934;4.668;2023-07-16T08:41:24;24.00;99.90
21602;DHT22;10963;50.934;4.668;2023-07-16T08:43:50;23.90;99.90
21602;DHT22;10963;50.934;4.668;2023-07-16T08:46:16;24.30;99.90
21602;DHT22;10963;50.934;4.668;2023-07-16T08:48:45;24.90;99.90
21602;DHT22;10963;50.934;4.668;2023-07-16T08:51:14;25.30;99.90
21602;DHT22;10963;50.934;4.668;2023-07-16T08:53:40;25.40;99.90
21602;DHT22;10963;50.934;4.668;2023-07-16T08:56:09;24.90;99.90
21602;DHT22;10963;50.934;4.668;2023-07-16T08:58:35;25.50;99.90
21602;DHT22;10963;50.934;4.668;2023-07-16T09:01:03;26.50;99.90
21602;DHT22;10963;50.934;4.668;2023-07-16T09:03:29;26.30;99.90
21602;DHT22;10963;50.934;4.668;2023-07-16T09:05:55;26.80;99.90
21602;DHT22;10963;50.934;4.668;2023-07-16T09:08:20;26.90;99.90
21602;DHT22;10963;50.934;4.668;2023-07-16T09:10:54;27.00;99.90
21602;DHT22;10963;50.934;4.668;2023-07-16T09:13:20;26.60;99.60
21602;DHT22;10963;50.934;4.668;2023-07-16T09:15:52;25.90;99.90
21602;DHT22;10963;50.934;4.668;2023-07-16T09:18:23;25.40;99.90
21602;DHT22;10963;50.934;4.668;2023-07-16T09:20:59;25.10;99.90
21602;DHT22;10963;50.934;4.668;2023-07-16T09:23:30;24.90;99.90
21602;DHT22;10963;50.934;4.668;2023-07-16T09:25:56;24.70;99.90
21602;DHT22;10963;50.934;4.668;2023-07-16T09:28:22;24.50;99.90
21602;DHT22;10963;50.934;4.668;2023-07-16T09:30:49;24.40;99.90
21602;DHT22;10963;50.934;4.668;2023-07-16T09:33:19;24.60;99.90
21602;DHT22;10963;50.934;4.668;2023-07-16T09:35:52;24.80;99.90
21602;DHT22;10963;50.934;4.668;2023-07-16T09:38:18;25.30;99.90
21602;DHT22;10963;50.934;4.668;2023-07-16T09:40:47;25.70;99.90
21602;DHT22;10963;50.934;4.668;2023-07-16T09:43:15;25.80;99.90
21602;DHT22;10963;50.934;4.668;2023-07-16T09:45:42;26.10;99.90
21602;DHT22;10963;50.934;4.668;2023-07-16T09:48:08;25.80;99.90
21602;DHT22;10963;50.934;4.668;2023-07-16T09:50:35;25.90;99.90
21602;DHT22;10963;50.934;4.668;2023-07-16T09:53:04;25.90;99.90
21602;DHT22;10963;50.934;4.668;2023-07-16T09:55:34;25.70;99.90
21602;DHT22;10963;50.934;4.668;2023-07-16T09:58:02;25.30;99.90
21602;DHT22;10963;50.934;4.668;2023-07-16T10:00:35;25.60;99.90
21602;DHT22;10963;50.934;4.668;2023-07-16T10:03:06;25.70;99.90
21602;DHT22;10963;50.934;4.668;2023-07-16T10:05:38;25.70;99.90
21602;DHT22;10963;50.934;4.668;2023-07-16T10:08:04;25.70;99.90
21602;DHT22;10963;50.934;4.668;2023-07-16T10:10:41;24.90;99.90
21602;DHT22;10963;50.934;4.668;2023-07-16T10:13:12;25.10;99.90
21602;DHT22;10963;50.934;4.668;2023-07-16T10:15:57;25.10;99.90
21602;DHT22;10963;50.934;4.668;2023-07-16T10:18:32;25.00;99.90
21602;DHT22;10963;50.934;4.668;2023-07-16T10:21:05;24.80;99.90
21602;DHT22;10963;50.934;4.668;2023-07-16T10:23:44;25.10;99.90
21602;DHT22;10963;50.934;4.668;2023-07-16T10:26:14;25.30;99.90
21602;DHT22;10963;50.934;4.668;2023-07-16T10:28:42;24.90;99.90
21602;DHT22;10963;50.934;4.668;2023-07-16T10:31:22;24.30;99.90
21602;DHT22;10963;50.934;4.668;2023-07-16T10:34:04;24.50;99.90
21602;DHT22;10963;50.934;4.668;2023-07-16T10:36:40;24.50;99.90
21602;DHT22;10963;50.934;4.668;2023-07-16T10:39:07;24.00;99.90
21602;DHT22;10963;50.934;4.668;2023-07-16T10:41:32;24.10;99.90
21602;DHT22;10963;50.934;4.668;2023-07-16T10:43:59;24.20;99.90
21602;DHT22;10963;50.934;4.668;2023-07-16T10:46:27;23.90;99.90
21602;DHT22;10963;50.934;4.668;2023-07-16T10:48:55;23.20;99.90
21602;DHT22;10963;50.934;4.668;2023-07-16T10:51:25;23.10;99.90
21602;DHT22;10963;50.934;4.668;2023-07-16T10:53:54;23.30;99.90
21602;DHT22;10963;50.934;4.668;2023-07-16T10:56:20;23.30;99.90
21602;DHT22;10963;50.934;4.668;2023-07-16T10:58:46;23.40;99.90
21602;DHT22;10963;50.934;4.668;2023-07-16T11:01:12;23.40;99.90
21602;DHT22;10963;50.934;4.668;2023-07-16T11:03:40;23.60;99.90
21602;DHT22;10963;50.934;4.668;2023-07-16T11:06:12;23.80;99.90
21602;DHT22;10963;50.934;4.668;2023-07-16T11:08:37;24.00;99.90
21602;DHT22;10963;50.934;4.668;2023-07-16T11:11:03;24.50;99.90
21602;DHT22;10963;50.934;4.668;2023-07-16T11:13:34;24.40;99.90
21602;DHT22;10963;50.934;4.668;2023-07-16T11:16:07;24.70;99.90
21602;DHT22;10963;50.934;4.668;2023-07-16T11:18:35;25.50;99.90
21602;DHT22;10963;50.934;4.668;2023-07-16T11:21:01;26.10;99.90
21602;DHT22;10963;50.934;4.668;2023-07-16T11:23:34;26.10;99.90
21602;DHT22;10963;50.934;4.668;2023-07-16T11:26:03;26.30;99.90
21602;DHT22;10963;50.934;4.668;2023-07-16T11:28:40;26.60;99.90
21602;DHT22;10963;50.934;4.668;2023-07-16T11:31:18;26.30;99.90
21602;DHT22;10963;50.934;4.668;2023-07-16T11:33:44;26.40;99.90
21602;DHT22;10963;50.934;4.668;2023-07-16T11:36:11;26.10;99.90
21602;DHT22;10963;50.934;4.668;2023-07-16T11:38:37;25.90;99.90
21602;DHT22;10963;50.934;4.668;2023-07-16T11:41:03;25.20;99.90
21602;DHT22;10963;50.934;4.668;2023-07-16T11:43:33;24.70;99.90
21602;DHT22;10963;50.934;4.668;2023-07-16T11:46:01;24.10;99.90
21602;DHT22;10963;50.934;4.668;2023-07-16T11:48:32;23.90;99.90
21602;DHT22;10963;50.934;4.668;2023-07-16T11:51:00;23.70;99.90
21602;DHT22;10963;50.934;4.668;2023-07-16T11:53:25;24.10;99.90
21602;DHT22;10963;50.934;4.668;2023-07-16T11:55:52;24.30;99.90
21602;DHT22;10963;50.934;4.668;2023-07-16T11:58:17;24.80;99.90
21602;DHT22;10963;50.934;4.668;2023-07-16T12:00:43;25.40;99.90
21602;DHT22;10963;50.934;4.668;2023-07-16T12:03:09;25.80;99.90
21602;DHT22;10963;50.934;4.668;2023-07-16T12:05:37;26.00;99.90
21602;DHT22;10963;50.934;4.668;2023-07-16T12:08:05;25.90;99.90
21602;DHT22;10963;50.934;4.668;2023-07-16T12:10:30;26.00;99.90
21602;DHT22;10963;50.934;4.668;2023-07-16T12:12:56;25.70;99.90
21602;DHT22;10963;50.934;4.668;2023-07-16T12:15:24;25.50;99.90
21602;DHT22;10963;50.934;4.668;2023-07-16T12:17:50;25.50;99.90
21602;DHT22;10963;50.934;4.668;2023-07-16T12:20:15;25.80;99.90
21602;DHT22;10963;50.934;4.668;2023-07-16T12:22:41;26.20;99.90
21602;DHT22;10963;50.934;4.668;2023-07-16T12:25:07;26.20;99.90
21602;DHT22;10963;50.934;4.668;2023-07-16T12:27:33;26.50;99.90
21602;DHT22;10963;50.934;4.668;2023-07-16T12:29:58;26.60;99.90
21602;DHT22;10963;50.934;4.668;2023-07-16T12:32:24;26.60;99.90
21602;DHT22;10963;50.934;4.668;2023-07-16T12:34:50;26.70;99.90
21602;DHT22;10963;50.934;4.668;2023-07-16T12:37:18;26.70;99.90
21602;DHT22;10963;50.934;4.668;2023-07-16T12:39:44;26.70;99.90
21602;DHT22;10963;50.934;4.668;2023-07-16T12:42:10;27.00;99.90
21602;DHT22;10963;50.934;4.668;2023-07-16T12:44:40;27.40;99.90
21602;DHT22;10963;50.934;4.668;2023-07-16T12:47:08;27.70;99.60
21602;DHT22;10963;50.934;4.668;2023-07-16T12:49:36;27.40;99.20
21602;DHT22;10963;50.934;4.668;2023-07-16T12:52:02;27.20;98.00
21602;DHT22;10963;50.934;4.668;2023-07-16T12:54:28;26.70;98.70
21602;DHT22;10963;50.934;4.668;2023-07-16T12:56:57;26.70;99.60
21602;DHT22;10963;50.934;4.668;2023-07-16T12:59:22;26.70;98.90
21602;DHT22;10963;50.934;4.668;2023-07-16T13:01:50;26.60;99.50
21602;DHT22;10963;50.934;4.668;2023-07-16T13:04:16;26.30;98.60
21602;DHT22;10963;50.934;4.668;2023-07-16T13:06:41;26.10;99.80
21602;DHT22;10963;50.934;4.668;2023-07-16T13:09:07;26.10;99.90
21602;DHT22;10963;50.934;4.668;2023-07-16T13:11:33;26.50;99.90
21602;DHT22;10963;50.934;4.668;2023-07-16T13:13:59;26.80;99.80
21602;DHT22;10963;50.934;4.668;2023-07-16T13:16:29;27.30;99.50
21602;DHT22;10963;50.934;4.668;2023-07-16T13:18:55;27.90;97.20
21602;DHT22;10963;50.934;4.668;2023-07-16T13:21:21;27.60;96.60
21602;DHT22;10963;50.934;4.668;2023-07-16T13:23:51;27.90;95.90
21602;DHT22;10963;50.934;4.668;2023-07-16T13:26:19;27.60;95.90
21602;DHT22;10963;50.934;4.668;2023-07-16T13:28:45;26.90;96.00
21602;DHT22;10963;50.934;4.668;2023-07-16T13:31:11;26.60;97.80
21602;DHT22;10963;50.934;4.668;2023-07-16T13:33:36;26.90;97.60
21602;DHT22;10963;50.934;4.668;2023-07-16T13:36:02;27.10;96.30
21602;DHT22;10963;50.934;4.668;2023-07-16T13:38:30;27.40;95.70
21602;DHT22;10963;50.934;4.668;2023-07-16T13:40:58;27.30;95.70
21602;DHT22;10963;50.934;4.668;2023-07-16T13:43:24;27.10;95.70
21602;DHT22;10963;50.934;4.668;2023-07-16T13:45:52;27.10;96.40
21602;DHT22;10963;50.934;4.668;2023-07-16T13:48:20;27.30;95.00
21602;DHT22;10963;50.934;4.668;2023-07-16T13:50:46;27.70;94.40
21602;DHT22;10963;50.934;4.668;2023-07-16T13:53:14;27.20;94.40
21602;DHT22;10963;50.934;4.668;2023-07-16T13:55:40;27.00;94.30
21602;DHT22;10963;50.934;4.668;2023-07-16T13:58:06;26.70;95.50
21602;DHT22;10963;50.934;4.668;2023-07-16T14:00:34;26.50;96.00
21602;DHT22;10963;50.934;4.668;2023-07-16T14:03:02;26.60;95.30
21602;DHT22;10963;50.934;4.668;2023-07-16T14:05:28;26.40;95.40
21602;DHT22;10963;50.934;4.668;2023-07-16T14:07:54;26.40;95.80
21602;DHT22;10963;50.934;4.668;2023-07-16T14:10:24;26.60;96.00
21602;DHT22;10963;50.934;4.668;2023-07-16T14:12:55;25.90;96.80
21602;DHT22;10963;50.934;4.668;2023-07-16T14:15:20;25.80;98.40
21602;DHT22;10963;50.934;4.668;2023-07-16T14:17:49;26.10;98.40
21602;DHT22;10963;50.934;4.668;2023-07-16T14:20:14;26.20;97.80
21602;DHT22;10963;50.934;4.668;2023-07-16T14:22:40;26.10;97.90
21602;DHT22;10963;50.934;4.668;2023-07-16T14:25:11;26.20;97.80
21602;DHT22;10963;50.934;4.668;2023-07-16T14:27:36;26.20;97.40
21602;DHT22;10963;50.934;4.668;2023-07-16T14:30:02;26.50;97.30
21602;DHT22;10963;50.934;4.668;2023-07-16T14:32:28;26.90;97.40
21602;DHT22;10963;50.934;4.668;2023-07-16T14:34:57;27.30;95.80
21602;DHT22;10963;50.934;4.668;2023-07-16T14:37:22;27.50;95.10
21602;DHT22;10963;50.934;4.668;2023-07-16T14:39:48;27.60;95.00
21602;DHT22;10963;50.934;4.668;2023-07-16T14:42:14;27.60;95.00
21602;DHT22;10963;50.934;4.668;2023-07-16T14:44:40;27.90;94.80
21602;DHT22;10963;50.934;4.668;2023-07-16T14:47:10;27.80;95.20
21602;DHT22;10963;50.934;4.668;2023-07-16T14:49:38;28.00;94.80
21602;DHT22;10963;50.934;4.668;2023-07-16T14:52:06;27.90;94.50
21602;DHT22;10963;50.934;4.668;2023-07-16T14:54:34;27.70;94.50
21602;DHT22;10963;50.934;4.668;2023-07-16T14:57:01;27.50;93.90
21602;DHT22;10963;50.934;4.668;2023-07-16T14:59:31;27.40;94.90
21602;DHT22;10963;50.934;4.668;2023-07-16T15:01:57;27.60;94.50
21602;DHT22;10963;50.934;4.668;2023-07-16T15:04:25;27.40;94.30
21602;DHT22;10963;50.934;4.668;2023-07-16T15:06:56;27.30;94.50
21602;DHT22;10963;50.934;4.668;2023-07-16T15:09:24;27.50;95.10
21602;DHT22;10963;50.934;4.668;2023-07-16T15:11:52;27.70;94.30
21602;DHT22;10963;50.934;4.668;2023-07-16T15:14:18;27.70;94.20
21602;DHT22;10963;50.934;4.668;2023-07-16T15:16:46;27.20;93.80
21602;DHT22;10963;50.934;4.668;2023-07-16T15:19:14;27.10;94.60
21602;DHT22;10963;50.934;4.668;2023-07-16T15:21:39;27.10;94.70
21602;DHT22;10963;50.934;4.668;2023-07-16T15:24:08;26.70;95.00
21602;DHT22;10963;50.934;4.668;2023-07-16T15:26:33;27.00;95.50
21602;DHT22;10963;50.934;4.668;2023-07-16T15:28:59;27.20;95.10
21602;DHT22;10963;50.934;4.668;2023-07-16T15:31:25;27.20;94.20
21602;DHT22;10963;50.934;4.668;2023-07-16T15:33:58;27.00;94.40
21602;DHT22;10963;50.934;4.668;2023-07-16T15:36:27;27.20;93.90
21602;DHT22;10963;50.934;4.668;2023-07-16T15:38:53;27.20;93.40